createdAt,value
2022-07-29T00:00:17.403Z,77.14
2022-07-29T00:05:25.420Z,78.04
2022-07-29T00:10:32.631Z,77.65
2022-07-29T00:15:40.557Z,77.99
2022-07-29T00:20:48.034Z,78.54
2022-07-29T00:25:54.862Z,78.02
2022-07-29T00:31:02.153Z,78.76
2022-07-29T00:36:08.657Z,79.86
2022-07-29T00:41:16.690Z,80.25001
2022-07-29T00:46:24.841Z,80.84
2022-07-29T00:51:33.115Z,80.0
2022-07-29T00:56:40.679Z,81.3
2022-07-29T01:02:27.472Z,81.97001
2022-07-29T01:07:40.418Z,82.64
2022-07-29T01:12:48.341Z,83.38
2022-07-29T01:17:55.611Z,83.35
2022-07-29T01:23:03.860Z,83.2
2022-07-29T01:28:11.831Z,83.45
2022-07-29T01:33:19.981Z,83.63
2022-07-29T01:38:27.763Z,84.07001
2022-07-29T01:43:36.041Z,83.86001
2022-07-29T01:48:44.119Z,84.45
2022-07-29T01:53:51.928Z,84.76001
2022-07-29T01:59:00.090Z,84.96
2022-07-29T02:04:08.049Z,85.14
2022-07-29T02:09:15.776Z,85.64
2022-07-29T02:14:24.764Z,85.55
2022-07-29T02:19:33.305Z,86.27
2022-07-29T02:24:41.262Z,86.06
2022-07-29T02:29:48.868Z,86.71
2022-07-29T02:34:56.899Z,86.09
2022-07-29T02:40:04.101Z,85.86
2022-07-29T02:45:11.232Z,86.85
2022-07-29T02:50:19.073Z,87.26001
2022-07-29T02:55:27.106Z,86.37
2022-07-29T03:00:35.321Z,86.76001
2022-07-29T03:05:43.954Z,87.36
2022-07-29T03:10:50.760Z,87.13
2022-07-29T03:15:58.396Z,86.47
2022-07-29T03:21:05.906Z,86.06
2022-07-29T03:26:13.485Z,86.6
2022-07-29T03:31:21.422Z,87.28
2022-07-29T03:36:29.560Z,87.51
2022-07-29T03:41:37.716Z,86.48001
2022-07-29T03:46:45.900Z,86.23
2022-07-29T03:51:54.313Z,85.81
2022-07-29T03:57:02.283Z,86.90001
2022-07-29T04:02:11.084Z,86.42
2022-07-29T04:07:19.500Z,86.89
2022-07-29T04:12:28.151Z,85.94001
2022-07-29T04:17:43.239Z,84.21
2022-07-29T04:22:51.174Z,83.32
2022-07-29T04:27:58.335Z,82.22
2022-07-29T04:33:06.173Z,78.52
2022-07-29T04:38:14.633Z,75.52
2022-07-29T04:43:23.069Z,72.95
2022-07-29T04:48:30.978Z,71.0
2022-07-29T04:53:39.239Z,69.54
2022-07-29T04:58:47.289Z,65.43
2022-07-29T05:03:54.508Z,63.0
2022-07-29T05:09:02.394Z,62.26
2022-07-29T05:14:09.579Z,65.71
2022-07-29T05:19:17.592Z,66.99
2022-07-29T05:24:27.004Z,66.69
2022-07-29T05:29:34.334Z,65.95
2022-07-29T05:34:42.498Z,64.79
2022-07-29T05:39:50.694Z,66.13
2022-07-29T05:44:58.548Z,66.58
2022-07-29T05:50:05.819Z,67.44
2022-07-29T05:55:12.953Z,65.72
2022-07-29T06:00:20.754Z,65.65
2022-07-29T06:05:28.995Z,65.78
2022-07-29T06:10:36.220Z,66.8
2022-07-29T06:15:44.828Z,70.19001
2022-07-29T06:20:52.093Z,68.76
2022-07-29T06:38:52.329Z,71.62
2022-07-29T06:43:59.560Z,72.49
2022-07-29T06:49:06.818Z,73.46
2022-07-29T06:54:15.175Z,74.48
2022-07-29T06:59:22.715Z,77.27
2022-07-29T07:04:29.735Z,76.35
2022-07-29T07:09:38.685Z,78.9
2022-07-29T07:14:46.008Z,78.15
2022-07-29T07:19:53.627Z,80.18001
2022-07-29T07:25:01.044Z,80.38
2022-07-29T07:30:09.132Z,79.64
2022-07-29T07:35:16.158Z,80.72001
2022-07-29T07:40:24.969Z,82.38
2022-07-29T07:45:33.102Z,81.97001
2022-07-29T07:50:40.892Z,81.62001
2022-07-29T07:55:48.482Z,82.2
2022-07-29T08:00:55.931Z,80.73001
2022-07-29T08:06:05.018Z,79.56
2022-07-29T08:11:12.238Z,78.3
2022-07-29T08:16:20.159Z,75.39
2022-07-29T08:21:28.341Z,73.35
2022-07-29T08:26:36.011Z,71.61
2022-07-29T08:31:44.356Z,70.7
2022-07-29T08:36:51.463Z,69.79
2022-07-29T08:42:00.245Z,70.61
2022-07-29T08:47:07.783Z,70.14
2022-07-29T08:52:15.608Z,70.53
2022-07-29T08:57:22.857Z,68.44
2022-07-29T09:02:30.054Z,67.4
2022-07-29T09:07:38.997Z,65.34
2022-07-29T09:12:46.445Z,66.15
2022-07-29T09:17:54.174Z,66.6
2022-07-29T09:23:02.003Z,64.93
2022-07-29T09:28:07.975Z,65.94
2022-07-29T09:33:15.864Z,69.39
2022-07-29T09:38:24.065Z,69.66001
2022-07-29T09:43:32.089Z,73.33
2022-07-29T09:48:40.016Z,72.22
2022-07-29T09:53:48.802Z,72.95
2022-07-29T09:58:56.293Z,72.41001
2022-07-29T10:04:09.714Z,71.1
2022-07-29T10:09:16.415Z,69.48
2022-07-29T10:14:24.249Z,69.98001
2022-07-29T10:19:32.036Z,65.58
2022-07-29T10:24:39.356Z,63.88
2022-07-29T10:29:51.481Z,56.18
2022-07-29T10:34:58.787Z,54.38
2022-07-29T10:40:06.018Z,51.35
2022-07-29T10:45:14.673Z,48.27
2022-07-29T10:50:22.529Z,46.75
2022-07-29T10:55:30.681Z,46.32
2022-07-29T11:00:38.510Z,45.28
2022-07-29T11:05:46.383Z,45.79
2022-07-29T11:10:53.813Z,45.09
2022-07-29T11:16:01.960Z,44.49
2022-07-29T11:21:11.095Z,43.25
2022-07-29T11:26:17.924Z,44.95
2022-07-29T11:31:25.768Z,44.84
2022-07-29T11:36:33.477Z,46.78
2022-07-29T11:41:42.013Z,46.2
2022-07-29T11:46:49.780Z,45.04
2022-07-29T11:51:57.707Z,43.56
2022-07-29T11:57:05.938Z,46.91
2022-07-29T12:02:13.425Z,45.82
2022-07-29T12:07:20.648Z,46.33
2022-07-29T12:12:28.382Z,46.54
2022-07-29T12:17:36.528Z,46.71
2022-07-29T12:22:44.393Z,48.01
2022-07-29T12:27:52.083Z,49.36
2022-07-29T12:32:58.993Z,50.55
2022-07-29T12:44:45.589Z,50.9
2022-07-29T12:49:51.030Z,49.73
2022-07-29T12:54:59.360Z,48.5
2022-07-29T13:00:06.329Z,46.94
2022-07-29T13:05:13.950Z,48.26
2022-07-29T13:10:22.774Z,47.65
2022-07-29T13:15:29.537Z,49.71
2022-07-29T13:20:36.103Z,51.44
2022-07-29T13:25:43.296Z,53.28
2022-07-29T13:30:51.065Z,54.16
2022-07-29T13:35:58.519Z,52.74
2022-07-29T13:41:06.675Z,52.92
2022-07-29T13:46:15.113Z,50.97
2022-07-29T13:51:22.101Z,49.02
2022-07-29T13:56:30.450Z,47.13
2022-07-29T14:01:37.691Z,45.38
2022-07-29T14:06:45.947Z,45.3
2022-07-29T14:11:54.470Z,43.71
2022-07-29T14:17:02.885Z,44.1
2022-07-29T14:22:11.313Z,45.5
2022-07-29T14:27:17.969Z,47.76
2022-07-29T14:32:24.820Z,48.06
2022-07-29T14:37:31.826Z,46.27
2022-07-29T14:42:39.677Z,47.57
2022-07-29T14:47:47.711Z,50.38
2022-07-29T14:52:56.527Z,51.89
2022-07-29T14:58:03.855Z,53.64
2022-07-29T15:03:11.612Z,53.77
2022-07-29T15:08:19.988Z,53.63
2022-07-29T15:13:28.439Z,53.8
2022-07-29T15:18:35.996Z,53.38
2022-07-29T15:23:44.581Z,51.81
2022-07-29T15:28:52.093Z,50.75
2022-07-29T15:34:01.211Z,51.66
2022-07-29T15:39:08.456Z,52.37
2022-07-29T15:44:16.057Z,53.7
2022-07-29T15:49:22.854Z,54.51
2022-07-29T15:54:31.803Z,55.31
2022-07-29T15:59:39.132Z,54.58
2022-07-29T16:04:46.315Z,52.54
2022-07-29T16:09:54.728Z,51.84
2022-07-29T16:15:01.791Z,52.57
2022-07-29T16:20:09.783Z,52.85
2022-07-29T16:25:17.893Z,54.08
2022-07-29T16:30:25.096Z,54.3
2022-07-29T16:35:32.037Z,55.18
2022-07-29T16:42:10.836Z,56.91
2022-07-29T16:47:17.218Z,57.76
2022-07-29T16:52:23.714Z,58.41
2022-07-29T16:57:32.013Z,59.08
2022-07-29T17:02:38.971Z,60.02
2022-07-29T17:07:46.319Z,60.93
2022-07-29T17:12:53.379Z,61.45
2022-07-29T17:18:01.322Z,62.76
2022-07-29T17:23:08.560Z,63.48
2022-07-29T17:28:15.609Z,64.22
2022-07-29T17:33:23.743Z,63.96
2022-07-29T17:38:32.326Z,64.24
2022-07-29T17:43:40.676Z,63.92
2022-07-29T17:48:48.924Z,64.4
2022-07-29T17:53:56.852Z,65.22
2022-07-29T17:59:04.974Z,66.30001
2022-07-29T18:04:12.471Z,67.57
2022-07-29T18:09:20.393Z,68.7
2022-07-29T18:14:29.125Z,69.76
2022-07-29T18:19:36.713Z,70.7
2022-07-29T18:24:44.835Z,71.58
2022-07-29T18:29:52.536Z,72.66
2022-07-29T18:34:59.553Z,73.17
2022-07-29T18:40:07.223Z,73.97
2022-07-29T18:45:16.287Z,74.96
2022-07-29T18:50:24.217Z,75.78
2022-07-29T18:55:32.605Z,76.4
2022-07-29T19:00:40.386Z,76.95
2022-07-29T19:05:49.017Z,77.39
2022-07-29T19:10:57.283Z,77.68
2022-07-29T19:16:04.979Z,78.36
2022-07-29T19:21:12.923Z,79.0
2022-07-29T19:26:21.248Z,79.93
2022-07-29T19:31:29.080Z,80.5
2022-07-29T19:36:36.094Z,80.57
2022-07-29T19:41:43.805Z,81.69001
2022-07-29T19:46:51.820Z,82.35
2022-07-29T19:52:00.164Z,83.06
2022-07-29T19:57:07.153Z,83.23001
2022-07-29T20:02:15.295Z,83.08001
2022-07-29T20:07:22.694Z,82.96
2022-07-29T20:12:30.512Z,83.32
2022-07-29T20:17:38.326Z,83.74
2022-07-29T20:22:45.366Z,84.22
2022-07-29T20:27:53.214Z,84.84
2022-07-29T20:33:00.411Z,85.18001
2022-07-29T20:38:08.259Z,85.0
2022-07-29T20:43:17.096Z,84.90001
2022-07-29T20:48:24.767Z,85.99
2022-07-29T20:53:32.839Z,85.93
2022-07-29T20:58:40.228Z,86.4
2022-07-29T21:03:47.453Z,85.5
2022-07-29T21:08:55.291Z,85.48
2022-07-29T21:14:03.183Z,86.14
2022-07-29T21:19:10.345Z,86.84
2022-07-29T21:24:18.615Z,87.37
2022-07-29T21:29:25.368Z,86.92
2022-07-29T21:34:33.490Z,86.72
2022-07-29T21:39:41.936Z,86.63
2022-07-29T21:44:50.684Z,86.63
2022-07-29T21:49:58.582Z,87.42
2022-07-29T21:55:06.746Z,87.96
2022-07-29T22:00:16.130Z,88.22001
2022-07-29T22:05:23.510Z,88.36
2022-07-29T22:10:31.319Z,87.99
2022-07-29T22:15:39.139Z,88.24
2022-07-29T22:20:47.250Z,89.22
2022-07-29T22:25:54.707Z,88.62
2022-07-29T22:31:02.206Z,87.47001
2022-07-29T22:36:09.322Z,86.81
2022-07-29T22:41:16.420Z,86.47
2022-07-29T22:46:22.907Z,85.44001
2022-07-29T22:51:30.167Z,84.74
2022-07-29T22:56:38.922Z,84.84
2022-07-29T23:01:47.483Z,84.51
2022-07-29T23:07:00.745Z,84.29
2022-07-29T23:12:07.936Z,84.19001
2022-07-29T23:17:16.216Z,83.6
2022-07-29T23:22:24.251Z,82.02
2022-07-29T23:27:31.479Z,80.32001
2022-07-29T23:32:39.771Z,79.7
2022-07-29T23:37:47.513Z,77.86
2022-07-29T23:42:55.592Z,77.85
2022-07-29T23:48:02.776Z,86.54
2022-07-29T23:53:09.338Z,90.31
2022-07-29T23:58:17.178Z,92.31
